YOLD

Details ICAO YOLD (OLP)
Name Olympic Dam
Region Australia
Timezone Australia/Adelaide (UTC+10.5)
Plans Departing 1
Arriving 2
Stats Elevation 343 ft / 105 m (AMSL)
Location -30.484945° 136.876099°
Runways 1
Magnetic Variation 6.446° E
Sunrise 2017-12-14 19:45:53 UTC / 2017-12-15 06:15:53 Local
Sunset 2017-12-15 09:51:51 UTC / 2017-12-15 20:21:51 Local
Advertisement - Login to hide

Runways

ID Width Length Bearing (true) Bearing (mag) Surface Threshold Offset Overrun Length
06 66 ft / 20 m 5,211 ft / 1,588 m 70.40° 63.95° Asphalt 0 ft / 0 m 0 ft / 0 m
24 66 ft / 20 m 5,211 ft / 1,588 m 250.40° 243.95° Asphalt 0 ft / 0 m 0 ft / 0 m

Map

Weather


0- 5 10 15 20 25 30 35+ Temperature / ° C

Clouds and Precipitation
Forecast for 2017-12-15 12:00 UTC. Updated an hour ago

Ground ~20,000 ft ~40,000 ft Winds

METAR

YOLD 151000Z AUTO 21011KT 9999 // NCD 30/02 Q1010

TAF

Not found

Frequencies

Unicom 119.60 MHz ACTIVATE LIGHTS ONLY MULT
Unicom 126.70 MHz OLYMPIC DAM MULT
Unicom 122.00 MHz MELBOURNE CENTRE MULT
Warning: Do not use this data for real-world aviation or navigation. No guarantee of current accuracy is given.